アディスアベバ の空港の天気 - METARとTAF

ボレ国際空港(アディスアベバ) ( HAAB / ADD ) - エチオピア アディスアベバ
飛行場実況気象(Metar)
観測時間06/17 21:00 EAT (06/17 18:00 UTC)
風向・風速北西 1m/s
視程10km以上
天気現象
全天の4割程度の雲 雲底高度 760m
気温0℃
湿度245%
気圧1028hPa
METARHAAB 171800Z 32002KT 9999 SCT025 76/13 Q1028
過去の天気等 Google飛行場航空写真 Wunderground天気予報

過去48時間のMETAR

飛行場予報(TAF)
発表時間: 6/17 18:30 EAT (6/17 15:30 UTC)
予報対象時間: 17日21時 EAT ~ 19日3時 EAT
風向・風速北北西 3m/s
視程10km以上
天気現象弱い雨
全天の4割程度の雲 雲底高度 910m
全天の8割程度の雲 雲底高度 2740m
18日22時 EAT ~ 19日2時 EAT に徐々に
風向・風速北 3m/s
視程8000m
TAF HAAB 171530Z 1718/1824 34005KT 9999 -RA SCT030 BKN090
BECMG 1819/1823 36006KT 8000 -TSRA/SHRA BKN020 FEW020CB